sensor_id;sensor_type;location;lat;lon;timestamp;pressure;altitude;pressure_sealevel;temperature;humidity
62124;BME280;48110;47.532;19.078;2023-05-29T00:01:11;100314.81;;;14.61;100.00
62124;BME280;48110;47.532;19.078;2023-05-29T00:04:17;100320.47;;;14.51;100.00
62124;BME280;48110;47.532;19.078;2023-05-29T00:07:24;100333.53;;;14.40;100.00
62124;BME280;48110;47.532;19.078;2023-05-29T00:10:30;100335.03;;;14.49;100.00
62124;BME280;48110;47.532;19.078;2023-05-29T00:13:37;100330.03;;;14.39;100.00
62124;BME280;48110;47.532;19.078;2023-05-29T00:16:45;100326.16;;;14.42;100.00
62124;BME280;48110;47.532;19.078;2023-05-29T00:19:56;100321.66;;;14.42;100.00
62124;BME280;48110;47.532;19.078;2023-05-29T00:23:05;100324.41;;;14.34;100.00
62124;BME280;48110;47.532;19.078;2023-05-29T00:26:11;100321.31;;;14.30;100.00
62124;BME280;48110;47.532;19.078;2023-05-29T00:29:18;100326.16;;;14.42;100.00
62124;BME280;48110;47.532;19.078;2023-05-29T00:32:26;100329.91;;;14.47;100.00
62124;BME280;48110;47.532;19.078;2023-05-29T00:35:37;100332.56;;;14.47;100.00
62124;BME280;48110;47.532;19.078;2023-05-29T00:38:48;100340.75;;;14.46;100.00
62124;BME280;48110;47.532;19.078;2023-05-29T00:41:55;100336.44;;;14.45;100.00
62124;BME280;48110;47.532;19.078;2023-05-29T00:45:01;100337.75;;;14.34;100.00
62124;BME280;48110;47.532;19.078;2023-05-29T00:48:07;100326.41;;;14.25;100.00
62124;BME280;48110;47.532;19.078;2023-05-29T00:51:15;100331.91;;;14.24;100.00
62124;BME280;48110;47.532;19.078;2023-05-29T00:54:26;100322.28;;;14.23;100.00
62124;BME280;48110;47.532;19.078;2023-05-29T00:57:35;100321.53;;;14.08;100.00
62124;BME280;48110;47.532;19.078;2023-05-29T01:00:42;100318.63;;;14.03;100.00
62124;BME280;48110;47.532;19.078;2023-05-29T01:03:55;100317.94;;;13.94;100.00
62124;BME280;48110;47.532;19.078;2023-05-29T01:07:02;100323.81;;;13.89;100.00
62124;BME280;48110;47.532;19.078;2023-05-29T01:10:10;100321.41;;;13.73;100.00
62124;BME280;48110;47.532;19.078;2023-05-29T01:13:19;100322.69;;;13.77;100.00
62124;BME280;48110;47.532;19.078;2023-05-29T01:16:38;100316.13;;;13.80;100.00
62124;BME280;48110;47.532;19.078;2023-05-29T01:20:07;100315.69;;;13.76;100.00
62124;BME280;48110;47.532;19.078;2023-05-29T01:23:33;100310.34;;;13.76;100.00
62124;BME280;48110;47.532;19.078;2023-05-29T01:29:58;100305.72;;;13.64;100.00
62124;BME280;48110;47.532;19.078;2023-05-29T01:33:06;100308.03;;;13.52;100.00
62124;BME280;48110;47.532;19.078;2023-05-29T01:36:12;100302.66;;;13.67;100.00
62124;BME280;48110;47.532;19.078;2023-05-29T01:39:19;100301.59;;;13.82;100.00
62124;BME280;48110;47.532;19.078;2023-05-29T01:42:28;100305.28;;;13.81;100.00
62124;BME280;48110;47.532;19.078;2023-05-29T01:45:36;100309.25;;;13.71;100.00
62124;BME280;48110;47.532;19.078;2023-05-29T01:48:43;100308.97;;;13.59;100.00
62124;BME280;48110;47.532;19.078;2023-05-29T01:51:50;100299.94;;;13.60;100.00
62124;BME280;48110;47.532;19.078;2023-05-29T01:54:55;100303.97;;;13.56;100.00
62124;BME280;48110;47.532;19.078;2023-05-29T01:58:05;100287.25;;;13.62;100.00
62124;BME280;48110;47.532;19.078;2023-05-29T02:01:19;100297.84;;;13.77;100.00
62124;BME280;48110;47.532;19.078;2023-05-29T02:04:30;100297.19;;;13.75;100.00
62124;BME280;48110;47.532;19.078;2023-05-29T02:07:38;100292.56;;;13.62;100.00
62124;BME280;48110;47.532;19.078;2023-05-29T02:10:47;100283.69;;;13.55;100.00
62124;BME280;48110;47.532;19.078;2023-05-29T02:13:57;100290.44;;;13.72;100.00
62124;BME280;48110;47.532;19.078;2023-05-29T02:17:05;100288.91;;;13.63;100.00
62124;BME280;48110;47.532;19.078;2023-05-29T02:20:13;100286.97;;;13.57;100.00
62124;BME280;48110;47.532;19.078;2023-05-29T02:23:19;100288.31;;;13.46;100.00
62124;BME280;48110;47.532;19.078;2023-05-29T02:26:26;100287.97;;;13.35;100.00
62124;BME280;48110;47.532;19.078;2023-05-29T02:29:34;100286.25;;;13.27;100.00
62124;BME280;48110;47.532;19.078;2023-05-29T02:32:42;100288.16;;;13.33;100.00
62124;BME280;48110;47.532;19.078;2023-05-29T02:35:48;100291.09;;;13.38;100.00
62124;BME280;48110;47.532;19.078;2023-05-29T02:38:56;100279.03;;;13.21;100.00
62124;BME280;48110;47.532;19.078;2023-05-29T02:42:01;100277.41;;;13.27;100.00
62124;BME280;48110;47.532;19.078;2023-05-29T02:45:10;100278.25;;;13.27;100.00
62124;BME280;48110;47.532;19.078;2023-05-29T02:48:17;100285.53;;;13.19;100.00
62124;BME280;48110;47.532;19.078;2023-05-29T02:51:24;100267.87;;;13.18;100.00
62124;BME280;48110;47.532;19.078;2023-05-29T02:54:32;100273.47;;;13.08;100.00
62124;BME280;48110;47.532;19.078;2023-05-29T02:57:39;100270.63;;;13.10;100.00
62124;BME280;48110;47.532;19.078;2023-05-29T03:00:47;100278.09;;;13.14;100.00
62124;BME280;48110;47.532;19.078;2023-05-29T03:03:53;100268.63;;;13.26;100.00
62124;BME280;48110;47.532;19.078;2023-05-29T03:07:00;100271.81;;;13.22;100.00
62124;BME280;48110;47.532;19.078;2023-05-29T03:10:07;100272.09;;;13.27;100.00
62124;BME280;48110;47.532;19.078;2023-05-29T03:13:16;100276.25;;;13.15;100.00
62124;BME280;48110;47.532;19.078;2023-05-29T03:16:25;100282.41;;;13.15;100.00
62124;BME280;48110;47.532;19.078;2023-05-29T03:19:32;100277.44;;;13.12;100.00
62124;BME280;48110;47.532;19.078;2023-05-29T03:22:41;100278.28;;;13.13;100.00
62124;BME280;48110;47.532;19.078;2023-05-29T03:25:48;100270.09;;;13.14;100.00
62124;BME280;48110;47.532;19.078;2023-05-29T03:28:57;100271.81;;;13.07;100.00
62124;BME280;48110;47.532;19.078;2023-05-29T03:32:05;100279.62;;;13.08;100.00
62124;BME280;48110;47.532;19.078;2023-05-29T03:35:14;100283.81;;;13.11;100.00
62124;BME280;48110;47.532;19.078;2023-05-29T03:38:21;100289.13;;;13.11;100.00
62124;BME280;48110;47.532;19.078;2023-05-29T03:41:30;100298.03;;;13.18;100.00
62124;BME280;48110;47.532;19.078;2023-05-29T03:44:37;100296.19;;;13.19;100.00
62124;BME280;48110;47.532;19.078;2023-05-29T03:47:45;100299.69;;;13.19;100.00
62124;BME280;48110;47.532;19.078;2023-05-29T03:50:51;100307.00;;;13.32;100.00
62124;BME280;48110;47.532;19.078;2023-05-29T03:53:59;100305.63;;;13.36;100.00
62124;BME280;48110;47.532;19.078;2023-05-29T03:57:07;100314.91;;;13.40;100.00
62124;BME280;48110;47.532;19.078;2023-05-29T04:00:15;100315.59;;;13.48;100.00
62124;BME280;48110;47.532;19.078;2023-05-29T04:03:24;100312.63;;;13.58;100.00
62124;BME280;48110;47.532;19.078;2023-05-29T04:06:31;100312.84;;;13.78;100.00
62124;BME280;48110;47.532;19.078;2023-05-29T04:09:39;100314.09;;;13.82;100.00
62124;BME280;48110;47.532;19.078;2023-05-29T04:12:45;100319.88;;;13.85;100.00
62124;BME280;48110;47.532;19.078;2023-05-29T04:15:52;100309.84;;;13.87;100.00
62124;BME280;48110;47.532;19.078;2023-05-29T04:19:00;100309.53;;;13.97;100.00
62124;BME280;48110;47.532;19.078;2023-05-29T04:22:07;100314.53;;;14.07;100.00
62124;BME280;48110;47.532;19.078;2023-05-29T04:25:14;100321.41;;;14.16;100.00
62124;BME280;48110;47.532;19.078;2023-05-29T04:28:24;100316.56;;;14.26;100.00
62124;BME280;48110;47.532;19.078;2023-05-29T04:31:30;100327.59;;;14.44;100.00
62124;BME280;48110;47.532;19.078;2023-05-29T04:34:36;100329.16;;;14.60;100.00
62124;BME280;48110;47.532;19.078;2023-05-29T04:37:43;100326.06;;;14.56;100.00
62124;BME280;48110;47.532;19.078;2023-05-29T04:40:52;100317.91;;;14.64;100.00
62124;BME280;48110;47.532;19.078;2023-05-29T04:44:00;100318.72;;;14.65;100.00
62124;BME280;48110;47.532;19.078;2023-05-29T04:47:09;100324.19;;;14.85;100.00
62124;BME280;48110;47.532;19.078;2023-05-29T04:50:17;100329.16;;;14.94;100.00
62124;BME280;48110;47.532;19.078;2023-05-29T04:53:24;100327.31;;;14.95;100.00
62124;BME280;48110;47.532;19.078;2023-05-29T04:56:33;100331.31;;;15.12;100.00
62124;BME280;48110;47.532;19.078;2023-05-29T04:59:41;100327.25;;;15.22;100.00
62124;BME280;48110;47.532;19.078;2023-05-29T05:02:49;100327.75;;;15.39;100.00
62124;BME280;48110;47.532;19.078;2023-05-29T05:05:55;100326.97;;;15.52;100.00
62124;BME280;48110;47.532;19.078;2023-05-29T05:09:02;100333.34;;;15.51;100.00
62124;BME280;48110;47.532;19.078;2023-05-29T05:12:10;100329.53;;;15.73;100.00
62124;BME280;48110;47.532;19.078;2023-05-29T05:15:18;100338.16;;;15.75;100.00
62124;BME280;48110;47.532;19.078;2023-05-29T05:18:24;100333.22;;;15.79;100.00
62124;BME280;48110;47.532;19.078;2023-05-29T05:21:29;100334.50;;;15.96;100.00
62124;BME280;48110;47.532;19.078;2023-05-29T05:24:42;100334.50;;;16.09;100.00
62124;BME280;48110;47.532;19.078;2023-05-29T05:27:50;100335.97;;;16.31;100.00
62124;BME280;48110;47.532;19.078;2023-05-29T05:30:59;100335.97;;;16.31;100.00
62124;BME280;48110;47.532;19.078;2023-05-29T05:34:08;100346.28;;;16.41;100.00
62124;BME280;48110;47.532;19.078;2023-05-29T05:37:18;100339.06;;;16.61;100.00
62124;BME280;48110;47.532;19.078;2023-05-29T05:40:28;100341.97;;;16.60;100.00
62124;BME280;48110;47.532;19.078;2023-05-29T05:43:36;100339.47;;;16.65;100.00
62124;BME280;48110;47.532;19.078;2023-05-29T05:46:42;100342.34;;;16.83;100.00
62124;BME280;48110;47.532;19.078;2023-05-29T05:49:52;100342.72;;;16.86;100.00
62124;BME280;48110;47.532;19.078;2023-05-29T05:52:59;100344.34;;;17.07;100.00
62124;BME280;48110;47.532;19.078;2023-05-29T05:56:07;100346.53;;;17.30;100.00
62124;BME280;48110;47.532;19.078;2023-05-29T05:59:17;100344.12;;;17.09;100.00
62124;BME280;48110;47.532;19.078;2023-05-29T06:02:24;100343.66;;;17.25;100.00
62124;BME280;48110;47.532;19.078;2023-05-29T06:05:34;100357.16;;;17.50;98.88
62124;BME280;48110;47.532;19.078;2023-05-29T06:08:42;100358.56;;;17.65;96.21
62124;BME280;48110;47.532;19.078;2023-05-29T06:11:50;100354.12;;;17.84;95.39
62124;BME280;48110;47.532;19.078;2023-05-29T06:14:55;100357.16;;;17.94;95.62
62124;BME280;48110;47.532;19.078;2023-05-29T06:18:04;100359.37;;;18.04;93.28
62124;BME280;48110;47.532;19.078;2023-05-29T06:21:12;100374.38;;;18.11;89.94
62124;BME280;48110;47.532;19.078;2023-05-29T06:24:19;100368.63;;;18.39;90.16
62124;BME280;48110;47.532;19.078;2023-05-29T06:27:24;100362.00;;;18.66;88.57
62124;BME280;48110;47.532;19.078;2023-05-29T06:30:32;100361.97;;;18.73;85.28
62124;BME280;48110;47.532;19.078;2023-05-29T06:33:41;100372.56;;;18.86;82.92
62124;BME280;48110;47.532;19.078;2023-05-29T06:36:48;100373.03;;;19.01;81.72
62124;BME280;48110;47.532;19.078;2023-05-29T06:39:54;100369.84;;;19.29;81.01
62124;BME280;48110;47.532;19.078;2023-05-29T06:43:02;100371.78;;;19.40;79.85
62124;BME280;48110;47.532;19.078;2023-05-29T06:46:10;100373.78;;;19.63;80.01
62124;BME280;48110;47.532;19.078;2023-05-29T06:49:17;100364.56;;;19.71;76.89
62124;BME280;48110;47.532;19.078;2023-05-29T06:52:24;100361.44;;;20.04;74.77
62124;BME280;48110;47.532;19.078;2023-05-29T06:55:33;100355.91;;;20.40;75.04
62124;BME280;48110;47.532;19.078;2023-05-29T06:58:42;100370.44;;;20.62;71.86
62124;BME280;48110;47.532;19.078;2023-05-29T07:01:52;100365.19;;;20.79;71.52
62124;BME280;48110;47.532;19.078;2023-05-29T07:04:59;100371.97;;;20.93;67.76
62124;BME280;48110;47.532;19.078;2023-05-29T07:08:07;100377.97;;;20.83;70.08
62124;BME280;48110;47.532;19.078;2023-05-29T07:11:13;100366.00;;;21.03;67.59
62124;BME280;48110;47.532;19.078;2023-05-29T07:14:21;100371.53;;;21.59;64.53
62124;BME280;48110;47.532;19.078;2023-05-29T07:17:28;100369.81;;;21.82;65.46
62124;BME280;48110;47.532;19.078;2023-05-29T07:20:38;100374.94;;;21.95;64.07
62124;BME280;48110;47.532;19.078;2023-05-29T07:23:44;100381.81;;;21.74;64.88
62124;BME280;48110;47.532;19.078;2023-05-29T07:26:53;100376.41;;;22.31;63.91
62124;BME280;48110;47.532;19.078;2023-05-29T07:30:00;100373.22;;;22.50;61.98
62124;BME280;48110;47.532;19.078;2023-05-29T07:33:09;100383.28;;;22.72;59.26
62124;BME280;48110;47.532;19.078;2023-05-29T07:36:16;100400.00;;;23.02;59.56
62124;BME280;48110;47.532;19.078;2023-05-29T07:39:25;100396.84;;;23.49;58.25
62124;BME280;48110;47.532;19.078;2023-05-29T07:42:32;100401.78;;;23.35;57.53
62124;BME280;48110;47.532;19.078;2023-05-29T07:45:40;100403.50;;;23.41;55.49
62124;BME280;48110;47.532;19.078;2023-05-29T07:48:49;100406.03;;;23.69;55.99
62124;BME280;48110;47.532;19.078;2023-05-29T07:51:57;100422.00;;;23.66;57.06
62124;BME280;48110;47.532;19.078;2023-05-29T07:55:05;100419.50;;;23.43;56.01
62124;BME280;48110;47.532;19.078;2023-05-29T07:58:12;100418.94;;;24.06;54.98
62124;BME280;48110;47.532;19.078;2023-05-29T08:01:19;100421.53;;;23.74;56.22
62124;BME280;48110;47.532;19.078;2023-05-29T08:04:30;100418.47;;;23.92;55.78
62124;BME280;48110;47.532;19.078;2023-05-29T08:07:37;100415.38;;;24.59;53.24
62124;BME280;48110;47.532;19.078;2023-05-29T08:10:45;100410.56;;;25.50;50.49
62124;BME280;48110;47.532;19.078;2023-05-29T08:13:51;100406.19;;;26.21;50.05
62124;BME280;48110;47.532;19.078;2023-05-29T08:17:02;100413.00;;;27.79;46.53
62124;BME280;48110;47.532;19.078;2023-05-29T08:20:07;100409.66;;;28.41;43.79
62124;BME280;48110;47.532;19.078;2023-05-29T08:23:16;100408.91;;;28.99;41.72
62124;BME280;48110;47.532;19.078;2023-05-29T08:26:21;100407.84;;;28.32;42.15
62124;BME280;48110;47.532;19.078;2023-05-29T08:29:30;100409.63;;;27.53;44.21
62124;BME280;48110;47.532;19.078;2023-05-29T08:32:38;100398.88;;;29.18;40.29
62124;BME280;48110;47.532;19.078;2023-05-29T08:35:45;100402.09;;;30.10;39.54
62124;BME280;48110;47.532;19.078;2023-05-29T08:38:51;100399.56;;;30.64;37.61
62124;BME280;48110;47.532;19.078;2023-05-29T08:42:19;100402.53;;;31.28;36.54
62124;BME280;48110;47.532;19.078;2023-05-29T08:45:27;100398.94;;;31.00;36.80
62124;BME280;48110;47.532;19.078;2023-05-29T08:48:39;100397.88;;;31.69;36.07
62124;BME280;48110;47.532;19.078;2023-05-29T08:51:47;100398.19;;;31.68;35.26
62124;BME280;48110;47.532;19.078;2023-05-29T08:54:59;100390.38;;;31.06;36.26
62124;BME280;48110;47.532;19.078;2023-05-29T08:58:06;100381.66;;;29.17;38.49
62124;BME280;48110;47.532;19.078;2023-05-29T09:01:16;100384.41;;;27.77;41.68
62124;BME280;48110;47.532;19.078;2023-05-29T09:04:24;100388.22;;;31.03;37.34
62124;BME280;48110;47.532;19.078;2023-05-29T09:07:33;100383.97;;;31.38;36.62
62124;BME280;48110;47.532;19.078;2023-05-29T09:10:41;100390.44;;;31.83;35.02
62124;BME280;48110;47.532;19.078;2023-05-29T09:13:48;100389.59;;;33.16;32.78
62124;BME280;48110;47.532;19.078;2023-05-29T09:16:54;100389.66;;;32.63;33.33
62124;BME280;48110;47.532;19.078;2023-05-29T09:20:00;100386.09;;;31.55;34.54
62124;BME280;48110;47.532;19.078;2023-05-29T09:23:10;100397.50;;;32.12;34.28
62124;BME280;48110;47.532;19.078;2023-05-29T09:26:16;100387.28;;;30.48;37.04
62124;BME280;48110;47.532;19.078;2023-05-29T09:29:22;100380.00;;;29.64;37.66
62124;BME280;48110;47.532;19.078;2023-05-29T09:32:34;100376.88;;;29.33;38.43
62124;BME280;48110;47.532;19.078;2023-05-29T09:35:43;100380.75;;;28.40;40.62
62124;BME280;48110;47.532;19.078;2023-05-29T09:38:51;100380.97;;;28.05;41.20
62124;BME280;48110;47.532;19.078;2023-05-29T09:42:10;100377.25;;;28.35;40.65
62124;BME280;48110;47.532;19.078;2023-05-29T09:45:20;100382.06;;;27.55;43.10
62124;BME280;48110;47.532;19.078;2023-05-29T09:48:27;100380.03;;;27.06;43.39
62124;BME280;48110;47.532;19.078;2023-05-29T09:51:34;100378.19;;;26.61;44.34
62124;BME280;48110;47.532;19.078;2023-05-29T09:54:42;100381.66;;;26.01;46.82
62124;BME280;48110;47.532;19.078;2023-05-29T09:57:54;100377.38;;;26.30;45.60
62124;BME280;48110;47.532;19.078;2023-05-29T10:01:01;100376.81;;;26.54;44.90
62124;BME280;48110;47.532;19.078;2023-05-29T10:04:07;100382.28;;;26.33;47.47
62124;BME280;48110;47.532;19.078;2023-05-29T10:10:24;100393.84;;;25.78;46.38
62124;BME280;48110;47.532;19.078;2023-05-29T10:13:33;100390.34;;;25.98;45.75
62124;BME280;48110;47.532;19.078;2023-05-29T10:16:45;100399.25;;;25.73;46.91
62124;BME280;48110;47.532;19.078;2023-05-29T10:19:52;100386.31;;;25.38;47.91
62124;BME280;48110;47.532;19.078;2023-05-29T10:23:00;100396.94;;;25.45;48.48
62124;BME280;48110;47.532;19.078;2023-05-29T10:26:23;100391.66;;;25.75;50.48
62124;BME280;48110;47.532;19.078;2023-05-29T10:29:44;100397.44;;;24.90;49.71
62124;BME280;48110;47.532;19.078;2023-05-29T10:33:30;100397.56;;;25.05;51.34
62124;BME280;48110;47.532;19.078;2023-05-29T10:36:43;100389.19;;;24.80;50.59
62124;BME280;48110;47.532;19.078;2023-05-29T10:40:08;100396.37;;;24.91;50.26
62124;BME280;48110;47.532;19.078;2023-05-29T10:43:37;100386.37;;;25.53;49.94
62124;BME280;48110;47.532;19.078;2023-05-29T10:49:59;100386.69;;;25.57;51.61
62124;BME280;48110;47.532;19.078;2023-05-29T10:53:14;100378.78;;;24.30;54.97
62124;BME280;48110;47.532;19.078;2023-05-29T10:56:27;100381.91;;;24.16;55.44
62124;BME280;48110;47.532;19.078;2023-05-29T10:59:38;100377.84;;;24.83;54.85
62124;BME280;48110;47.532;19.078;2023-05-29T11:02:46;100386.53;;;25.22;52.92
62124;BME280;48110;47.532;19.078;2023-05-29T11:06:08;100382.47;;;25.29;51.28
62124;BME280;48110;47.532;19.078;2023-05-29T11:09:34;100374.88;;;24.47;55.01
62124;BME280;48110;47.532;19.078;2023-05-29T11:12:57;100379.56;;;24.57;54.31
62124;BME280;48110;47.532;19.078;2023-05-29T11:16:20;100379.37;;;25.63;52.27
62124;BME280;48110;47.532;19.078;2023-05-29T11:19:42;100379.56;;;26.33;52.32
62124;BME280;48110;47.532;19.078;2023-05-29T11:23:02;100376.50;;;27.11;47.71
62124;BME280;48110;47.532;19.078;2023-05-29T11:26:12;100377.03;;;27.08;46.82
62124;BME280;48110;47.532;19.078;2023-05-29T11:29:29;100367.00;;;26.73;47.31
62124;BME280;48110;47.532;19.078;2023-05-29T11:32:38;100370.78;;;26.06;47.85
62124;BME280;48110;47.532;19.078;2023-05-29T11:35:47;100368.34;;;24.85;50.91
62124;BME280;48110;47.532;19.078;2023-05-29T11:38:56;100363.72;;;24.81;51.95
62124;BME280;48110;47.532;19.078;2023-05-29T11:42:04;100373.16;;;25.10;51.17
62124;BME280;48110;47.532;19.078;2023-05-29T11:45:16;100368.56;;;24.79;51.62
62124;BME280;48110;47.532;19.078;2023-05-29T11:48:24;100359.94;;;25.29;50.92
62124;BME280;48110;47.532;19.078;2023-05-29T11:51:30;100364.00;;;26.09;48.75
62124;BME280;48110;47.532;19.078;2023-05-29T11:54:38;100359.50;;;27.39;45.31
62124;BME280;48110;47.532;19.078;2023-05-29T11:57:45;100351.91;;;28.58;42.04
62124;BME280;48110;47.532;19.078;2023-05-29T12:00:52;100345.09;;;29.37;41.13
62124;BME280;48110;47.532;19.078;2023-05-29T12:03:59;100340.59;;;28.46;42.98
62124;BME280;48110;47.532;19.078;2023-05-29T12:07:19;100332.72;;;28.39;42.87
62124;BME280;48110;47.532;19.078;2023-05-29T12:10:27;100321.03;;;27.95;43.52
62124;BME280;48110;47.532;19.078;2023-05-29T12:13:35;100320.81;;;26.37;45.54
62124;BME280;48110;47.532;19.078;2023-05-29T12:16:43;100321.03;;;27.51;44.36
62124;BME280;48110;47.532;19.078;2023-05-29T12:19:53;100317.38;;;28.15;43.13
62124;BME280;48110;47.532;19.078;2023-05-29T12:23:01;100311.72;;;27.62;44.46
62124;BME280;48110;47.532;19.078;2023-05-29T12:26:09;100302.66;;;27.72;45.40
62124;BME280;48110;47.532;19.078;2023-05-29T12:29:19;100308.97;;;28.06;43.49
62124;BME280;48110;47.532;19.078;2023-05-29T12:32:34;100297.50;;;27.70;45.05
62124;BME280;48110;47.532;19.078;2023-05-29T12:35:46;100294.03;;;27.00;44.55
62124;BME280;48110;47.532;19.078;2023-05-29T12:38:54;100294.94;;;27.84;45.17
62124;BME280;48110;47.532;19.078;2023-05-29T12:42:02;100293.88;;;29.00;40.42
62124;BME280;48110;47.532;19.078;2023-05-29T12:45:12;100289.13;;;27.95;41.09
62124;BME280;48110;47.532;19.078;2023-05-29T12:48:18;100297.25;;;30.28;37.29
62124;BME280;48110;47.532;19.078;2023-05-29T12:51:27;100302.66;;;33.38;31.10
62124;BME280;48110;47.532;19.078;2023-05-29T12:54:34;100301.87;;;34.15;29.65
62124;BME280;48110;47.532;19.078;2023-05-29T12:57:41;100295.34;;;32.46;32.71
62124;BME280;48110;47.532;19.078;2023-05-29T13:00:53;100302.19;;;32.57;31.68
62124;BME280;48110;47.532;19.078;2023-05-29T13:04:01;100294.41;;;32.06;33.08
62124;BME280;48110;47.532;19.078;2023-05-29T13:07:08;100289.19;;;32.18;33.42
62124;BME280;48110;47.532;19.078;2023-05-29T13:10:16;100285.59;;;33.10;32.00
62124;BME280;48110;47.532;19.078;2023-05-29T13:13:23;100297.25;;;36.12;27.52
62124;BME280;48110;47.532;19.078;2023-05-29T13:16:29;100291.69;;;38.06;24.85
62124;BME280;48110;47.532;19.078;2023-05-29T13:19:38;100298.59;;;37.20;25.69
62124;BME280;48110;47.532;19.078;2023-05-29T13:22:46;100287.56;;;36.84;25.98
62124;BME280;48110;47.532;19.078;2023-05-29T13:25:52;100284.34;;;37.98;24.55
62124;BME280;48110;47.532;19.078;2023-05-29T13:28:58;100277.69;;;37.87;24.68
62124;BME280;48110;47.532;19.078;2023-05-29T13:32:06;100284.69;;;39.34;23.04
62124;BME280;48110;47.532;19.078;2023-05-29T13:35:11;100268.88;;;37.69;23.77
62124;BME280;48110;47.532;19.078;2023-05-29T13:38:18;100264.47;;;37.04;24.81
62124;BME280;48110;47.532;19.078;2023-05-29T13:41:23;100274.19;;;34.75;27.37
62124;BME280;48110;47.532;19.078;2023-05-29T13:44:32;100264.84;;;32.95;29.42
62124;BME280;48110;47.532;19.078;2023-05-29T13:47:39;100260.94;;;34.98;27.96
62124;BME280;48110;47.532;19.078;2023-05-29T13:50:46;100271.69;;;38.72;23.50
62124;BME280;48110;47.532;19.078;2023-05-29T13:53:52;100269.12;;;37.92;24.33
62124;BME280;48110;47.532;19.078;2023-05-29T13:57:00;100265.09;;;35.54;26.30
62124;BME280;48110;47.532;19.078;2023-05-29T14:00:08;100252.69;;;32.17;30.73
62124;BME280;48110;47.532;19.078;2023-05-29T14:03:16;100252.12;;;31.84;31.10
62124;BME280;48110;47.532;19.078;2023-05-29T14:06:27;100251.31;;;30.57;32.33
62124;BME280;48110;47.532;19.078;2023-05-29T14:09:35;100251.56;;;29.96;33.65
62124;BME280;48110;47.532;19.078;2023-05-29T14:12:42;100242.50;;;31.37;32.89
62124;BME280;48110;47.532;19.078;2023-05-29T14:15:51;100242.97;;;33.21;29.59
62124;BME280;48110;47.532;19.078;2023-05-29T14:19:03;100245.53;;;33.17;30.35
62124;BME280;48110;47.532;19.078;2023-05-29T14:22:09;100236.69;;;32.81;29.86
62124;BME280;48110;47.532;19.078;2023-05-29T14:25:18;100235.56;;;32.43;29.95
62124;BME280;48110;47.532;19.078;2023-05-29T14:28:25;100243.31;;;31.52;32.00
62124;BME280;48110;47.532;19.078;2023-05-29T14:31:32;100240.84;;;30.87;33.13
62124;BME280;48110;47.532;19.078;2023-05-29T14:34:37;100232.75;;;30.68;35.35
62124;BME280;48110;47.532;19.078;2023-05-29T14:37:41;100248.41;;;31.44;34.16
62124;BME280;48110;47.532;19.078;2023-05-29T14:40:47;100249.72;;;30.24;35.73
62124;BME280;48110;47.532;19.078;2023-05-29T14:44:10;100246.50;;;30.03;35.91
62124;BME280;48110;47.532;19.078;2023-05-29T14:47:19;100244.31;;;29.12;38.39
62124;BME280;48110;47.532;19.078;2023-05-29T14:50:25;100251.41;;;29.69;37.16
62124;BME280;48110;47.532;19.078;2023-05-29T14:53:33;100249.25;;;27.71;41.06
62124;BME280;48110;47.532;19.078;2023-05-29T14:56:39;100246.91;;;27.54;42.06
62124;BME280;48110;47.532;19.078;2023-05-29T14:59:46;100243.56;;;27.13;45.35
62124;BME280;48110;47.532;19.078;2023-05-29T15:02:52;100251.19;;;28.33;51.69
62124;BME280;48110;47.532;19.078;2023-05-29T15:05:59;100249.69;;;25.33;65.04
62124;BME280;48110;47.532;19.078;2023-05-29T15:09:05;100244.47;;;24.17;85.56
62124;BME280;48110;47.532;19.078;2023-05-29T15:12:12;100254.25;;;25.07;78.43
62124;BME280;48110;47.532;19.078;2023-05-29T15:15:20;100247.34;;;26.02;72.02
62124;BME280;48110;47.532;19.078;2023-05-29T15:18:30;100240.78;;;26.54;72.05
62124;BME280;48110;47.532;19.078;2023-05-29T15:21:36;100236.19;;;25.63;70.45
62124;BME280;48110;47.532;19.078;2023-05-29T15:24:41;100228.81;;;25.48;66.78
62124;BME280;48110;47.532;19.078;2023-05-29T15:27:44;100220.37;;;24.62;95.62
62124;BME280;48110;47.532;19.078;2023-05-29T15:30:47;100219.41;;;24.37;100.00
62124;BME280;48110;47.532;19.078;2023-05-29T15:33:51;100227.28;;;24.38;87.59
62124;BME280;48110;47.532;19.078;2023-05-29T15:36:57;100225.28;;;24.23;73.69
62124;BME280;48110;47.532;19.078;2023-05-29T15:40:01;100222.69;;;24.07;67.08
62124;BME280;48110;47.532;19.078;2023-05-29T15:43:08;100224.91;;;24.52;56.98
62124;BME280;48110;47.532;19.078;2023-05-29T15:46:15;100228.59;;;26.06;62.94
62124;BME280;48110;47.532;19.078;2023-05-29T15:49:24;100221.06;;;27.85;52.50
62124;BME280;48110;47.532;19.078;2023-05-29T15:52:29;100219.41;;;27.50;52.81
62124;BME280;48110;47.532;19.078;2023-05-29T15:55:44;100230.31;;;29.37;50.78
62124;BME280;48110;47.532;19.078;2023-05-29T15:58:50;100229.78;;;30.51;47.26
62124;BME280;48110;47.532;19.078;2023-05-29T16:01:56;100228.22;;;31.40;42.04
62124;BME280;48110;47.532;19.078;2023-05-29T16:05:06;100224.28;;;30.37;36.19
62124;BME280;48110;47.532;19.078;2023-05-29T16:08:13;100223.31;;;30.01;36.47
62124;BME280;48110;47.532;19.078;2023-05-29T16:11:23;100234.66;;;31.22;33.17
62124;BME280;48110;47.532;19.078;2023-05-29T16:14:30;100221.09;;;31.39;33.47
62124;BME280;48110;47.532;19.078;2023-05-29T16:17:38;100210.16;;;30.16;39.96